Time;durP1;ratioP1;P1;durP2;ratioP2;P2;SDS_P1;SDS_P2;PMS_P1;PMS_P2;Temp;Humidity;BMP_temperature;BMP_pressure;BME280_temperature;BME280_humidity;BME280_pressure;Samples;Min_cycle;Max_cycle;Signal;HPM_P1;HPM_P2
2022/10/27 00:01:53;;;;;;;5.97;5.47;;;;;;;;;;5189125;28;20057;-70
2022/10/27 00:04:23;;;;;;;9.77;3.55;;;;;;;;;;5188994;28;20017;-68
2022/10/27 00:06:54;;;;;;;4.00;3.65;;;;;;;;;;5188741;28;20033;-68
2022/10/27 00:09:24;;;;;;;5.28;4.97;;;;;;;;;;5206582;28;20013;-68
2022/10/27 00:11:55;;;;;;;7.90;7.20;;;;;;;;;;5188929;28;20098;-68
2022/10/27 00:14:25;;;;;;;4.32;3.67;;;;;;;;;;5188514;28;20021;-67
2022/10/27 00:16:55;;;;;;;4.43;4.13;;;;;;;;;;5188942;28;20017;-68
2022/10/27 00:19:26;;;;;;;9.32;5.35;;;;;;;;;;5188788;28;20249;-68
2022/10/27 00:21:56;;;;;;;4.72;4.43;;;;;;;;;;5189192;28;20017;-68
2022/10/27 00:24:26;;;;;;;7.38;4.88;;;;;;;;;;5188567;28;20108;-68
2022/10/27 00:26:56;;;;;;;4.55;4.25;;;;;;;;;;5206148;28;20029;-69
2022/10/27 00:29:27;;;;;;;8.82;5.13;;;;;;;;;;5206645;28;20026;-68
2022/10/27 00:31:57;;;;;;;6.68;4.85;;;;;;;;;;5188095;28;20501;-68
2022/10/27 00:37:02;;;;;;;6.43;4.35;;;;;;;;;;5226722;28;20675;-66
2022/10/27 00:39:32;;;;;;;4.25;3.85;;;;;;;;;;5224783;28;20107;-68
2022/10/27 00:42:03;;;;;;;7.25;5.07;;;;;;;;;;5225010;28;20017;-68
2022/10/27 00:44:37;;;;;;;4.63;4.32;;;;;;;;;;5206572;28;20029;-67
2022/10/27 00:47:08;;;;;;;4.07;3.88;;;;;;;;;;5206758;28;20593;-66
2022/10/27 00:49:47;;;;;;;4.53;4.10;;;;;;;;;;5206634;28;20112;-66
2022/10/27 00:52:21;;;;;;;5.65;5.35;;;;;;;;;;5207082;28;20021;-67
2022/10/27 00:54:53;;;;;;;6.47;4.72;;;;;;;;;;5206457;28;20105;-67
2022/10/27 00:57:24;;;;;;;5.93;5.40;;;;;;;;;;5206812;28;20484;-67
2022/10/27 00:59:54;;;;;;;5.72;4.70;;;;;;;;;;5206636;28;20029;-69
2022/10/27 01:02:24;;;;;;;5.53;5.07;;;;;;;;;;5225056;28;20017;-66
2022/10/27 01:05:04;;;;;;;8.95;4.43;;;;;;;;;;5224148;28;20053;-66
2022/10/27 01:07:35;;;;;;;8.25;3.83;;;;;;;;;;5206629;28;20032;-67
2022/10/27 01:10:05;;;;;;;5.68;5.00;;;;;;;;;;5206098;28;20029;-67
2022/10/27 01:12:35;;;;;;;8.90;4.97;;;;;;;;;;5206712;28;20032;-67
2022/10/27 01:15:06;;;;;;;6.80;4.90;;;;;;;;;;5206152;28;20028;-65
2022/10/27 01:17:37;;;;;;;5.82;5.32;;;;;;;;;;5206499;28;20025;-67
2022/10/27 01:20:29;;;;;;;6.30;4.57;;;;;;;;;;5206223;28;20054;-67
2022/10/27 01:23:02;;;;;;;5.35;4.95;;;;;;;;;;5206260;28;20170;-67
2022/10/27 01:25:33;;;;;;;5.85;3.58;;;;;;;;;;5206366;28;20112;-67
2022/10/27 01:28:22;;;;;;;3.78;3.47;;;;;;;;;;5206428;28;20568;-68
2022/10/27 01:30:55;;;;;;;5.53;5.05;;;;;;;;;;5205830;28;20090;-66
2022/10/27 01:33:31;;;;;;;10.30;4.68;;;;;;;;;;5206313;28;20484;-67
2022/10/27 01:36:37;;;;;;;4.47;4.07;;;;;;;;;;5205975;28;20036;-68
2022/10/27 01:39:11;;;;;;;4.22;3.90;;;;;;;;;;5104281;28;20023;-66
2022/10/27 01:41:55;;;;;;;4.63;4.20;;;;;;;;;;5209135;28;20039;-67
2022/10/27 01:44:33;;;;;;;24.05;4.10;;;;;;;;;;5223935;28;20017;-67
2022/10/27 01:47:04;;;;;;;5.10;4.65;;;;;;;;;;5206096;28;20017;-68
2022/10/27 01:49:35;;;;;;;5.15;3.85;;;;;;;;;;5224011;28;20025;-68
2022/10/27 01:52:06;;;;;;;6.10;4.40;;;;;;;;;;5206221;28;20031;-67
2022/10/27 01:54:36;;;;;;;4.72;4.30;;;;;;;;;;5223547;28;20017;-66
2022/10/27 01:57:10;;;;;;;5.00;4.53;;;;;;;;;;5223976;28;20453;-66
2022/10/27 01:59:40;;;;;;;8.75;3.45;;;;;;;;;;5205875;28;20040;-69
2022/10/27 02:02:20;;;;;;;8.48;4.10;;;;;;;;;;5208710;28;20021;-69
2022/10/27 02:05:05;;;;;;;10.27;4.38;;;;;;;;;;5209885;28;20029;-67
2022/10/27 02:07:42;;;;;;;5.57;4.50;;;;;;;;;;5210153;28;20025;-67
2022/10/27 02:10:16;;;;;;;5.50;3.80;;;;;;;;;;5209757;28;20037;-67
2022/10/27 02:12:46;;;;;;;4.13;3.83;;;;;;;;;;5227817;28;20021;-66
2022/10/27 02:15:16;;;;;;;3.90;3.70;;;;;;;;;;5209465;28;20024;-67
2022/10/27 02:17:48;;;;;;;3.83;2.60;;;;;;;;;;5209846;28;20024;-66
2022/10/27 02:20:21;;;;;;;3.63;3.33;;;;;;;;;;5209720;28;20025;-67
2022/10/27 02:22:53;;;;;;;5.05;3.60;;;;;;;;;;5209688;28;20017;-68
2022/10/27 02:25:27;;;;;;;8.48;3.45;;;;;;;;;;5209337;28;20060;-66
2022/10/27 02:28:00;;;;;;;3.85;3.60;;;;;;;;;;5209605;28;20139;-67
2022/10/27 02:30:31;;;;;;;3.60;3.40;;;;;;;;;;5209305;28;20114;-67
2022/10/27 02:33:01;;;;;;;6.05;2.97;;;;;;;;;;5209822;28;20024;-65
2022/10/27 02:35:32;;;;;;;4.35;3.75;;;;;;;;;;5209159;28;20549;-67
2022/10/27 02:38:02;;;;;;;5.95;3.88;;;;;;;;;;5209532;28;20043;-67
2022/10/27 02:40:33;;;;;;;4.45;3.13;;;;;;;;;;5209295;28;20021;-68
2022/10/27 02:43:03;;;;;;;4.68;3.47;;;;;;;;;;5209223;28;20017;-66
2022/10/27 02:45:33;;;;;;;5.05;3.75;;;;;;;;;;5209119;28;20052;-66
2022/10/27 02:48:04;;;;;;;4.05;3.78;;;;;;;;;;5209229;28;20055;-68
2022/10/27 02:50:34;;;;;;;7.50;3.60;;;;;;;;;;5227083;28;20017;-67
2022/10/27 02:53:04;;;;;;;7.78;4.00;;;;;;;;;;5209240;28;20043;-67
2022/10/27 02:55:35;;;;;;;6.13;4.38;;;;;;;;;;5208842;28;20028;-66
2022/10/27 02:58:05;;;;;;;4.47;4.18;;;;;;;;;;5209060;28;20023;-67
2022/10/27 03:00:35;;;;;;;6.47;3.67;;;;;;;;;;5209118;28;20087;-66
2022/10/27 03:03:05;;;;;;;8.98;3.70;;;;;;;;;;5208992;28;20017;-67
2022/10/27 03:05:36;;;;;;;4.78;4.38;;;;;;;;;;5208722;28;20473;-66
2022/10/27 03:08:06;;;;;;;4.57;4.28;;;;;;;;;;5226601;28;20025;-66
2022/10/27 03:10:36;;;;;;;2.90;2.80;;;;;;;;;;5208512;28;20458;-68
2022/10/27 03:13:07;;;;;;;6.30;3.42;;;;;;;;;;5208190;28;20017;-67
2022/10/27 03:15:37;;;;;;;5.55;2.72;;;;;;;;;;5208770;28;20029;-67
2022/10/27 03:18:08;;;;;;;2.67;2.47;;;;;;;;;;5226504;28;20021;-68
2022/10/27 03:20:38;;;;;;;3.60;3.30;;;;;;;;;;5208295;28;20017;-66
2022/10/27 03:23:08;;;;;;;6.68;3.95;;;;;;;;;;5208491;28;20021;-65
2022/10/27 03:25:43;;;;;;;8.48;3.80;;;;;;;;;;5226092;28;20021;-66
2022/10/27 03:28:13;;;;;;;3.45;3.03;;;;;;;;;;5208314;28;20040;-70
2022/10/27 03:30:43;;;;;;;4.60;3.92;;;;;;;;;;5208217;28;20396;-67
2022/10/27 03:33:13;;;;;;;4.07;3.60;;;;;;;;;;5208296;28;20595;-68
2022/10/27 03:35:44;;;;;;;2.90;2.75;;;;;;;;;;5207842;28;20040;-68
2022/10/27 03:38:14;;;;;;;4.35;3.75;;;;;;;;;;5208217;28;20465;-66
2022/10/27 03:40:44;;;;;;;3.22;2.42;;;;;;;;;;5208270;28;20025;-66
2022/10/27 03:43:15;;;;;;;6.57;3.75;;;;;;;;;;5207716;28;20021;-66
2022/10/27 03:45:48;;;;;;;7.30;3.38;;;;;;;;;;5207982;28;20384;-66
2022/10/27 03:48:19;;;;;;;3.05;2.85;;;;;;;;;;5208133;28;20021;-67
2022/10/27 03:50:49;;;;;;;6.82;3.05;;;;;;;;;;5208131;28;20477;-68
2022/10/27 03:53:20;;;;;;;2.60;2.45;;;;;;;;;;5207429;28;20074;-68
2022/10/27 03:55:50;;;;;;;2.70;2.60;;;;;;;;;;5208228;28;20035;-66
2022/10/27 03:58:20;;;;;;;4.50;4.10;;;;;;;;;;5208061;28;20531;-66
2022/10/27 04:00:50;;;;;;;5.40;3.72;;;;;;;;;;5207208;28;20025;-66
2022/10/27 04:03:21;;;;;;;4.65;2.95;;;;;;;;;;5206958;28;20476;-71
2022/10/27 04:05:51;;;;;;;3.03;2.75;;;;;;;;;;5207061;28;20021;-70
2022/10/27 04:08:22;;;;;;;3.50;3.20;;;;;;;;;;5207015;28;20116;-66
2022/10/27 04:10:52;;;;;;;3.20;2.83;;;;;;;;;;5206196;28;20380;-66
2022/10/27 04:13:22;;;;;;;4.65;3.55;;;;;;;;;;5223740;28;20087;-67
2022/10/27 04:15:52;;;;;;;3.97;2.80;;;;;;;;;;5206960;28;20108;-67
2022/10/27 04:18:23;;;;;;;6.10;3.80;;;;;;;;;;5224681;28;20367;-68
2022/10/27 04:20:53;;;;;;;3.08;2.88;;;;;;;;;;5224163;28;20189;-67
2022/10/27 04:23:23;;;;;;;4.03;3.47;;;;;;;;;;5205850;28;20049;-66
2022/10/27 04:25:54;;;;;;;5.95;3.25;;;;;;;;;;5205871;28;20025;-68
2022/10/27 04:28:24;;;;;;;3.75;3.55;;;;;;;;;;5224547;28;20426;-67
2022/10/27 04:30:54;;;;;;;3.58;3.00;;;;;;;;;;5224248;28;20073;-69
2022/10/27 04:33:25;;;;;;;2.45;2.35;;;;;;;;;;5205767;28;20074;-67
2022/10/27 04:35:56;;;;;;;3.40;3.20;;;;;;;;;;5206440;28;20511;-65
2022/10/27 04:38:26;;;;;;;5.95;3.78;;;;;;;;;;5224099;28;20024;-67
2022/10/27 04:40:58;;;;;;;2.97;2.78;;;;;;;;;;5206012;28;20017;-66
2022/10/27 04:43:28;;;;;;;6.07;3.70;;;;;;;;;;5205960;28;20043;-67
2022/10/27 04:46:05;;;;;;;7.97;4.25;;;;;;;;;;5224566;28;20025;-67
2022/10/27 04:48:35;;;;;;;2.50;2.33;;;;;;;;;;5206302;28;20017;-67
2022/10/27 04:51:05;;;;;;;5.18;3.05;;;;;;;;;;5205358;28;20025;-67
2022/10/27 04:53:35;;;;;;;4.47;3.25;;;;;;;;;;5206632;28;20021;-66
2022/10/27 04:56:06;;;;;;;3.45;3.15;;;;;;;;;;5209008;28;20016;-68
2022/10/27 04:58:40;;;;;;;5.45;2.90;;;;;;;;;;5224446;28;20044;-68
2022/10/27 05:01:11;;;;;;;3.70;3.38;;;;;;;;;;5243738;28;20017;-67
2022/10/27 05:03:41;;;;;;;5.15;3.47;;;;;;;;;;5225754;28;20043;-66
2022/10/27 05:06:11;;;;;;;5.53;3.40;;;;;;;;;;5225963;28;20024;-66
2022/10/27 05:08:42;;;;;;;5.47;3.10;;;;;;;;;;5225796;28;20407;-67
2022/10/27 05:11:12;;;;;;;6.22;2.88;;;;;;;;;;5225854;28;20024;-68
2022/10/27 05:13:43;;;;;;;3.05;2.83;;;;;;;;;;5243746;28;20111;-67
2022/10/27 05:16:13;;;;;;;4.80;3.15;;;;;;;;;;5225898;28;20016;-68
2022/10/27 05:18:43;;;;;;;2.75;2.55;;;;;;;;;;5243680;28;20391;-67
2022/10/27 05:21:14;;;;;;;4.43;4.10;;;;;;;;;;5225780;28;20055;-68
2022/10/27 05:23:44;;;;;;;2.60;2.50;;;;;;;;;;5225598;28;20052;-67
2022/10/27 05:26:14;;;;;;;4.00;2.70;;;;;;;;;;5225548;28;20035;-66
2022/10/27 05:28:46;;;;;;;2.85;2.70;;;;;;;;;;5225876;28;20534;-66
2022/10/27 05:31:16;;;;;;;3.65;3.38;;;;;;;;;;5225422;28;20024;-68
2022/10/27 05:33:47;;;;;;;4.15;3.22;;;;;;;;;;5222793;28;20101;-67
2022/10/27 05:36:17;;;;;;;5.97;3.75;;;;;;;;;;5226058;28;20027;-67
2022/10/27 05:38:47;;;;;;;14.50;3.53;;;;;;;;;;5229316;28;20100;-66
2022/10/27 05:41:18;;;;;;;7.63;4.60;;;;;;;;;;5227534;28;20021;-65
2022/10/27 05:43:48;;;;;;;2.85;2.72;;;;;;;;;;5228062;28;20287;-67
2022/10/27 05:46:18;;;;;;;4.50;3.35;;;;;;;;;;5230224;28;20027;-67
2022/10/27 05:48:48;;;;;;;12.02;3.50;;;;;;;;;;5229828;28;20016;-67
2022/10/27 05:51:19;;;;;;;2.75;2.50;;;;;;;;;;5227554;28;20031;-67
2022/10/27 05:53:49;;;;;;;3.15;2.95;;;;;;;;;;5247426;28;20426;-66
2022/10/27 05:56:20;;;;;;;4.03;3.78;;;;;;;;;;5229784;28;20506;-67
2022/10/27 05:58:50;;;;;;;5.65;4.03;;;;;;;;;;5248071;28;20061;-67
2022/10/27 06:01:20;;;;;;;4.03;3.30;;;;;;;;;;5247908;28;20384;-67
2022/10/27 06:03:51;;;;;;;3.33;3.05;;;;;;;;;;5226992;28;20112;-66
2022/10/27 06:06:21;;;;;;;2.67;2.58;;;;;;;;;;5229650;28;20032;-66
2022/10/27 06:08:51;;;;;;;4.40;3.97;;;;;;;;;;5229967;28;20032;-66
2022/10/27 06:11:21;;;;;;;2.72;2.63;;;;;;;;;;5229489;28;20050;-67
2022/10/27 06:13:52;;;;;;;2.63;2.53;;;;;;;;;;5229430;28;20140;-66
2022/10/27 06:16:24;;;;;;;3.10;2.83;;;;;;;;;;5229631;28;20063;-67
2022/10/27 06:18:55;;;;;;;3.33;3.08;;;;;;;;;;5229686;28;20028;-67
2022/10/27 06:21:26;;;;;;;4.15;2.67;;;;;;;;;;5229703;28;20028;-67
2022/10/27 06:23:56;;;;;;;6.90;3.00;;;;;;;;;;5229191;28;20025;-67
2022/10/27 06:26:26;;;;;;;5.18;3.30;;;;;;;;;;5229582;28;20369;-65
2022/10/27 06:28:57;;;;;;;3.70;3.50;;;;;;;;;;5248098;28;20032;-66
2022/10/27 06:31:27;;;;;;;4.30;3.30;;;;;;;;;;5229276;28;20023;-67
2022/10/27 06:33:57;;;;;;;4.25;3.92;;;;;;;;;;5247654;28;20441;-65
2022/10/27 06:36:28;;;;;;;2.35;2.25;;;;;;;;;;5229533;28;20364;-66
2022/10/27 06:38:58;;;;;;;8.65;3.92;;;;;;;;;;5247095;28;20021;-66
2022/10/27 06:41:28;;;;;;;3.85;2.97;;;;;;;;;;5225204;23;20037;-70
2022/10/27 06:43:59;;;;;;;3.80;2.85;;;;;;;;;;5202408;28;20024;-68
2022/10/27 06:46:29;;;;;;;5.07;2.95;;;;;;;;;;5223335;28;20022;-70
2022/10/27 06:49:00;;;;;;;2.90;2.65;;;;;;;;;;5223699;28;20068;-68
2022/10/27 06:51:30;;;;;;;2.58;2.47;;;;;;;;;;5206934;28;20028;-69
2022/10/27 06:54:00;;;;;;;3.42;3.13;;;;;;;;;;5223581;28;20504;-69
2022/10/27 06:56:30;;;;;;;7.30;2.83;;;;;;;;;;5208026;28;20017;-67
2022/10/27 06:59:01;;;;;;;2.63;2.47;;;;;;;;;;5223969;28;20422;-69
2022/10/27 07:01:31;;;;;;;4.72;3.17;;;;;;;;;;5223204;28;20022;-68
2022/10/27 07:04:01;;;;;;;2.42;2.33;;;;;;;;;;5206690;28;20120;-67
2022/10/27 07:06:32;;;;;;;6.47;2.10;;;;;;;;;;5223662;28;20057;-67
2022/10/27 07:09:02;;;;;;;4.57;3.03;;;;;;;;;;5206886;28;20025;-67
2022/10/27 07:11:32;;;;;;;3.08;2.88;;;;;;;;;;5202880;28;20044;-69
2022/10/27 07:14:03;;;;;;;2.00;1.90;;;;;;;;;;5189409;28;20404;-67
2022/10/27 07:16:33;;;;;;;7.20;3.33;;;;;;;;;;5206403;28;20021;-68
2022/10/27 07:19:03;;;;;;;2.58;2.42;;;;;;;;;;5189335;28;20378;-67
2022/10/27 07:21:33;;;;;;;4.47;3.67;;;;;;;;;;5189739;28;20071;-67
2022/10/27 07:24:04;;;;;;;3.35;3.05;;;;;;;;;;5189739;28;20018;-67
2022/10/27 07:26:34;;;;;;;6.05;2.85;;;;;;;;;;5206044;28;20021;-67
2022/10/27 07:29:04;;;;;;;2.47;2.33;;;;;;;;;;5207416;28;20043;-67
2022/10/27 07:31:35;;;;;;;2.88;2.70;;;;;;;;;;5207043;28;20055;-67
2022/10/27 07:34:05;;;;;;;3.20;3.00;;;;;;;;;;5189309;28;20018;-66
2022/10/27 07:36:35;;;;;;;23.15;4.03;;;;;;;;;;5206175;28;20063;-67
2022/10/27 07:39:06;;;;;;;2.55;2.35;;;;;;;;;;5189348;28;20452;-67
2022/10/27 07:41:36;;;;;;;2.88;2.78;;;;;;;;;;5205679;28;20382;-67
2022/10/27 07:44:06;;;;;;;2.63;2.25;;;;;;;;;;5189273;28;20021;-67
2022/10/27 07:46:36;;;;;;;4.03;2.10;;;;;;;;;;5189533;28;20547;-66
2022/10/27 07:49:07;;;;;;;2.22;2.13;;;;;;;;;;5189305;28;20029;-67
2022/10/27 07:51:37;;;;;;;4.15;2.45;;;;;;;;;;5205417;28;20108;-67
2022/10/27 07:54:07;;;;;;;2.75;2.65;;;;;;;;;;5206790;28;20423;-70
2022/10/27 07:56:38;;;;;;;2.33;2.22;;;;;;;;;;5205622;28;20026;-66
2022/10/27 07:59:08;;;;;;;1.70;1.70;;;;;;;;;;5204479;28;20013;-66
2022/10/27 08:01:38;;;;;;;2.10;1.90;;;;;;;;;;5205394;28;20108;-66
2022/10/27 08:04:08;;;;;;;4.30;2.22;;;;;;;;;;5205241;28;20028;-66
2022/10/27 08:06:39;;;;;;;2.85;2.65;;;;;;;;;;5206587;28;20460;-66
2022/10/27 08:09:09;;;;;;;2.00;1.90;;;;;;;;;;5189043;28;20117;-67
2022/10/27 08:11:39;;;;;;;2.22;2.13;;;;;;;;;;5203458;28;20112;-67
2022/10/27 08:14:10;;;;;;;3.15;2.85;;;;;;;;;;5172358;28;20021;-67
2022/10/27 08:16:41;;;;;;;5.60;2.63;;;;;;;;;;5203137;28;20017;-67
2022/10/27 08:19:11;;;;;;;2.55;1.98;;;;;;;;;;5204291;28;20125;-66
2022/10/27 08:21:41;;;;;;;2.58;2.13;;;;;;;;;;5205587;28;20021;-65
2022/10/27 08:24:12;;;;;;;3.13;2.83;;;;;;;;;;5203696;28;20021;-65
2022/10/27 08:26:42;;;;;;;2.20;2.10;;;;;;;;;;5187512;28;20033;-65
2022/10/27 08:29:12;;;;;;;2.30;2.17;;;;;;;;;;5205218;28;20017;-65
2022/10/27 08:31:42;;;;;;;7.88;2.53;;;;;;;;;;5204045;28;20448;-65
2022/10/27 08:34:13;;;;;;;3.45;3.25;;;;;;;;;;5205075;28;20076;-65
2022/10/27 08:36:43;;;;;;;10.00;3.47;;;;;;;;;;5203943;28;20473;-65
2022/10/27 08:39:13;;;;;;;5.78;3.13;;;;;;;;;;5205049;28;20445;-65
2022/10/27 08:41:56;;;;;;;6.38;2.83;;;;;;;;;;5203701;28;20041;-65
2022/10/27 08:44:30;;;;;;;5.18;2.58;;;;;;;;;;5187441;28;20025;-65
2022/10/27 08:47:05;;;;;;;2.42;2.33;;;;;;;;;;5187600;28;20397;-65
2022/10/27 08:49:44;;;;;;;3.38;2.00;;;;;;;;;;5187846;28;20370;-65
2022/10/27 08:52:18;;;;;;;12.07;3.53;;;;;;;;;;5187887;28;20021;-65
2022/10/27 08:54:51;;;;;;;2.13;2.03;;;;;;;;;;5205503;28;20120;-65
2022/10/27 08:57:27;;;;;;;6.60;2.70;;;;;;;;;;5187060;28;20022;-65
2022/10/27 08:59:58;;;;;;;2.08;1.98;;;;;;;;;;5186046;28;20025;-65
2022/10/27 09:02:47;;;;;;;3.55;3.10;;;;;;;;;;5203438;28;20443;-65
2022/10/27 09:05:35;;;;;;;3.10;2.80;;;;;;;;;;5204737;28;20017;-65
2022/10/27 09:08:09;;;;;;;6.43;4.07;;;;;;;;;;5203678;28;20065;-65
2022/10/27 09:10:49;;;;;;;2.85;2.67;;;;;;;;;;5204484;28;20401;-65
2022/10/27 09:13:30;;;;;;;2.40;2.20;;;;;;;;;;5204541;28;20021;-65
2022/10/27 09:16:03;;;;;;;2.47;2.22;;;;;;;;;;5187039;28;20025;-65
2022/10/27 09:18:36;;;;;;;2.70;2.50;;;;;;;;;;5204544;28;20021;-65
2022/10/27 09:21:13;;;;;;;5.07;2.72;;;;;;;;;;5186759;28;20374;-65
2022/10/27 09:23:48;;;;;;;3.30;3.10;;;;;;;;;;5186582;28;20429;-64
2022/10/27 09:26:22;;;;;;;3.95;2.13;;;;;;;;;;5186750;28;20102;-64
2022/10/27 09:28:54;;;;;;;4.05;2.55;;;;;;;;;;5186828;28;20021;-64
2022/10/27 09:31:54;;;;;;;3.92;3.28;;;;;;;;;;5185642;28;20041;-64
2022/10/27 09:34:27;;;;;;;3.53;2.50;;;;;;;;;;5165426;28;20025;-65
2022/10/27 09:36:58;;;;;;;3.90;3.00;;;;;;;;;;5203113;28;20018;-65
2022/10/27 09:39:28;;;;;;;3.70;3.22;;;;;;;;;;5203485;28;20377;-65
2022/10/27 09:41:58;;;;;;;2.35;2.25;;;;;;;;;;5203226;28;20391;-65
2022/10/27 09:44:29;;;;;;;6.43;2.58;;;;;;;;;;5203980;28;20119;-65
2022/10/27 09:46:59;;;;;;;2.60;2.40;;;;;;;;;;5203009;28;20040;-64
2022/10/27 09:49:36;;;;;;;2.50;1.85;;;;;;;;;;5203043;28;20018;-65
2022/10/27 09:52:11;;;;;;;4.20;3.83;;;;;;;;;;5196848;28;20028;-65
2022/10/27 09:54:52;;;;;;;2.95;2.58;;;;;;;;;;5185337;28;20028;-64
2022/10/27 09:57:26;;;;;;;11.70;2.95;;;;;;;;;;5186525;28;20049;-64
2022/10/27 10:00:00;;;;;;;2.70;2.50;;;;;;;;;;5186549;28;20485;-64
2022/10/27 10:02:39;;;;;;;2.47;2.33;;;;;;;;;;5202468;28;20033;-64
2022/10/27 10:05:29;;;;;;;2.70;2.55;;;;;;;;;;5202348;28;20014;-64
2022/10/27 10:08:18;;;;;;;4.20;3.05;;;;;;;;;;5186168;28;20053;-64
2022/10/27 10:10:54;;;;;;;4.35;3.95;;;;;;;;;;5202502;28;20025;-64
2022/10/27 10:13:29;;;;;;;5.82;2.80;;;;;;;;;;5202222;28;20124;-64
2022/10/27 10:16:13;;;;;;;2.65;2.45;;;;;;;;;;5186450;28;20017;-65
2022/10/27 10:18:55;;;;;;;6.03;2.95;;;;;;;;;;5186151;28;20091;-65
2022/10/27 10:21:25;;;;;;;3.97;3.22;;;;;;;;;;5203595;28;20097;-65
2022/10/27 10:23:56;;;;;;;3.55;1.83;;;;;;;;;;5189378;28;20112;-65
2022/10/27 10:26:28;;;;;;;6.63;3.15;;;;;;;;;;5207862;28;20376;-66
2022/10/27 10:29:06;;;;;;;3.80;3.08;;;;;;;;;;5206493;28;20473;-66
2022/10/27 10:31:36;;;;;;;2.60;2.35;;;;;;;;;;5207209;28;20035;-66
2022/10/27 10:34:26;;;;;;;3.30;3.10;;;;;;;;;;5189195;28;20388;-65
2022/10/27 10:36:57;;;;;;;3.53;3.33;;;;;;;;;;5189633;28;20025;-65
2022/10/27 10:39:28;;;;;;;2.25;2.15;;;;;;;;;;5206131;28;20024;-66
2022/10/27 10:42:10;;;;;;;2.00;1.90;;;;;;;;;;5206980;28;20059;-66
2022/10/27 10:44:41;;;;;;;3.10;2.88;;;;;;;;;;5206983;28;20018;-66
2022/10/27 10:47:20;;;;;;;4.82;3.72;;;;;;;;;;5189510;28;20416;-66
2022/10/27 10:49:52;;;;;;;2.60;2.08;;;;;;;;;;5189448;28;20108;-66
2022/10/27 10:52:24;;;;;;;4.70;3.75;;;;;;;;;;5205627;28;20048;-66
2022/10/27 10:54:54;;;;;;;6.32;2.90;;;;;;;;;;5189051;28;20018;-67
2022/10/27 10:57:28;;;;;;;2.83;2.58;;;;;;;;;;5205843;28;20021;-66
2022/10/27 10:59:58;;;;;;;2.88;2.67;;;;;;;;;;5205683;28;20030;-66
2022/10/27 11:02:30;;;;;;;13.05;3.75;;;;;;;;;;5184943;28;20121;-65
2022/10/27 11:05:11;;;;;;;4.80;3.10;;;;;;;;;;5168211;28;20118;-65
2022/10/27 11:07:44;;;;;;;7.38;3.58;;;;;;;;;;5221988;28;20021;-66
2022/10/27 11:10:20;;;;;;;4.78;3.30;;;;;;;;;;5222458;28;20025;-66
2022/10/27 11:12:50;;;;;;;4.93;3.08;;;;;;;;;;5222235;28;20070;-65
2022/10/27 11:15:27;;;;;;;3.67;3.17;;;;;;;;;;5219452;28;20024;-66
2022/10/27 11:18:00;;;;;;;5.22;3.90;;;;;;;;;;5221228;28;20049;-65
2022/10/27 11:20:31;;;;;;;4.15;3.38;;;;;;;;;;5222630;28;20405;-65
2022/10/27 11:23:04;;;;;;;3.30;3.10;;;;;;;;;;5207507;28;20427;-65
2022/10/27 11:25:35;;;;;;;3.78;3.33;;;;;;;;;;5222602;28;20033;-65
2022/10/27 11:28:14;;;;;;;8.30;3.60;;;;;;;;;;5207318;28;20022;-66
2022/10/27 11:30:50;;;;;;;2.35;2.25;;;;;;;;;;5206234;28;20029;-65
2022/10/27 11:33:23;;;;;;;8.65;3.03;;;;;;;;;;5222472;28;20117;-65
2022/10/27 11:36:06;;;;;;;2.88;2.53;;;;;;;;;;5222646;28;20026;-65
2022/10/27 11:38:42;;;;;;;6.32;3.83;;;;;;;;;;5222712;28;20024;-65
2022/10/27 11:41:18;;;;;;;5.68;4.05;;;;;;;;;;5222587;28;20482;-65
2022/10/27 11:44:07;;;;;;;4.60;2.47;;;;;;;;;;5221970;28;20041;-66
2022/10/27 11:46:41;;;;;;;3.55;3.25;;;;;;;;;;5221989;28;20477;-65
2022/10/27 11:49:15;;;;;;;3.33;3.10;;;;;;;;;;5222171;28;20374;-65
2022/10/27 11:51:48;;;;;;;5.93;3.00;;;;;;;;;;5222306;28;20021;-65
2022/10/27 11:54:19;;;;;;;11.30;3.88;;;;;;;;;;5206762;28;20078;-66
2022/10/27 11:57:03;;;;;;;11.15;3.60;;;;;;;;;;5222442;28;20039;-65
2022/10/27 11:59:46;;;;;;;3.35;3.15;;;;;;;;;;5222327;28;20025;-66
2022/10/27 12:02:24;;;;;;;3.63;3.03;;;;;;;;;;5205510;28;20070;-65
2022/10/27 12:05:01;;;;;;;4.68;3.17;;;;;;;;;;5222098;28;20032;-66
2022/10/27 12:07:44;;;;;;;3.10;3.00;;;;;;;;;;5221875;28;20132;-65
2022/10/27 12:10:33;;;;;;;3.58;2.78;;;;;;;;;;5221723;28;20021;-66
2022/10/27 12:13:29;;;;;;;6.95;3.03;;;;;;;;;;5221553;28;20056;-66
2022/10/27 12:16:09;;;;;;;8.52;3.65;;;;;;;;;;5200389;28;20258;-64
2022/10/27 12:18:43;;;;;;;4.65;4.25;;;;;;;;;;5221801;28;20056;-64
2022/10/27 12:21:16;;;;;;;3.20;2.90;;;;;;;;;;5221539;28;20442;-64
2022/10/27 12:24:05;;;;;;;3.58;3.25;;;;;;;;;;5221444;28;20018;-65
2022/10/27 12:26:44;;;;;;;3.80;3.50;;;;;;;;;;5221569;28;20076;-65
2022/10/27 12:29:15;;;;;;;;;;;;;;;;;;5206710;28;20028;-65
2022/10/27 12:32:11;;;;;;;4.43;3.45;;;;;;;;;;5221474;28;19909;-65
2022/10/27 12:34:44;;;;;;;3.72;3.45;;;;;;;;;;5199763;28;20037;-66
2022/10/27 12:37:19;;;;;;;4.55;2.55;;;;;;;;;;5221513;28;20026;-64
2022/10/27 12:39:54;;;;;;;3.83;3.13;;;;;;;;;;5221204;28;20037;-65
2022/10/27 12:42:27;;;;;;;3.78;2.92;;;;;;;;;;5228037;23;20480;-66
2022/10/27 12:45:17;;;;;;;7.28;3.40;;;;;;;;;;5225010;28;20032;-67
2022/10/27 12:47:55;;;;;;;5.72;3.25;;;;;;;;;;5207695;28;20039;-68
2022/10/27 12:50:25;;;;;;;4.85;2.72;;;;;;;;;;5225397;28;20421;-66
2022/10/27 12:52:59;;;;;;;3.35;2.97;;;;;;;;;;5207312;28;20025;-67
2022/10/27 12:55:30;;;;;;;6.45;3.45;;;;;;;;;;5225199;28;20480;-66
2022/10/27 12:58:10;;;;;;;4.75;3.53;;;;;;;;;;5207664;28;20071;-67
2022/10/27 13:00:47;;;;;;;3.25;3.03;;;;;;;;;;5207379;28;20459;-65
2022/10/27 13:03:45;;;;;;;21.88;4.70;;;;;;;;;;5225012;28;20020;-66
2022/10/27 13:06:45;;;;;;;5.30;3.00;;;;;;;;;;5207389;28;20028;-67
2022/10/27 13:09:18;;;;;;;3.13;2.92;;;;;;;;;;5154777;28;20033;-67
2022/10/27 13:11:55;;;;;;;4.65;4.38;;;;;;;;;;5207589;28;20055;-66
2022/10/27 13:14:34;;;;;;;7.35;4.70;;;;;;;;;;5206719;28;20021;-65
2022/10/27 13:17:04;;;;;;;;;;;;;;;;;;5207467;28;20025;-65
2022/10/27 13:19:40;;;;;;;4.15;3.90;;;;;;;;;;5224898;28;20363;-69
2022/10/27 13:22:20;;;;;;;4.82;3.95;;;;;;;;;;5206993;28;20234;-70
2022/10/27 13:24:55;;;;;;;3.65;3.40;;;;;;;;;;5206850;28;20032;-67
2022/10/27 13:27:41;;;;;;;3.45;3.13;;;;;;;;;;5206878;28;20022;-66
2022/10/27 13:30:19;;;;;;;9.15;4.07;;;;;;;;;;5206845;28;20029;-66
2022/10/27 13:32:52;;;;;;;4.95;2.60;;;;;;;;;;5207097;28;20028;-66
2022/10/27 13:35:22;;;;;;;4.18;3.80;;;;;;;;;;5224579;28;20052;-66
2022/10/27 13:37:58;;;;;;;4.13;3.90;;;;;;;;;;5207105;28;20021;-68
2022/10/27 13:40:34;;;;;;;4.40;4.03;;;;;;;;;;5206724;28;20017;-67
2022/10/27 13:43:22;;;;;;;7.97;4.43;;;;;;;;;;5224446;28;20037;-66
2022/10/27 13:45:54;;;;;;;7.25;3.78;;;;;;;;;;5205085;28;20090;-64
2022/10/27 13:48:24;;;;;;;4.18;3.78;;;;;;;;;;5206478;28;20028;-66
2022/10/27 13:50:55;;;;;;;5.20;3.65;;;;;;;;;;5224516;28;20469;-67
2022/10/27 13:53:25;;;;;;;6.72;4.60;;;;;;;;;;5205921;28;20017;-69
2022/10/27 13:55:57;;;;;;;12.60;4.25;;;;;;;;;;5224317;28;20032;-67
2022/10/27 13:58:39;;;;;;;3.40;3.20;;;;;;;;;;5209901;28;20392;-66
2022/10/27 14:01:19;;;;;;;6.10;4.88;;;;;;;;;;5210881;28;20165;-68
2022/10/27 14:04:08;;;;;;;6.82;3.55;;;;;;;;;;5210659;28;20021;-70
2022/10/27 14:06:40;;;;;;;6.20;3.28;;;;;;;;;;5210489;28;20500;-67
2022/10/27 14:09:11;;;;;;;6.78;4.00;;;;;;;;;;5210519;28;20033;-66
2022/10/27 14:11:44;;;;;;;3.85;3.55;;;;;;;;;;5210215;28;20029;-67
2022/10/27 14:14:27;;;;;;;5.00;3.65;;;;;;;;;;5217776;28;20021;-67
2022/10/27 14:17:00;;;;;;;9.38;3.38;;;;;;;;;;5210335;28;20430;-66
2022/10/27 14:19:31;;;;;;;4.60;4.22;;;;;;;;;;5210305;28;20048;-67
2022/10/27 14:22:03;;;;;;;4.85;3.75;;;;;;;;;;5209323;28;20124;-67
2022/10/27 14:24:41;;;;;;;12.43;4.55;;;;;;;;;;5209914;28;20049;-67
2022/10/27 14:27:12;;;;;;;6.85;4.53;;;;;;;;;;5209901;28;20404;-66
2022/10/27 14:29:43;;;;;;;5.15;4.38;;;;;;;;;;5209513;28;20071;-66
2022/10/27 14:32:13;;;;;;;8.35;3.88;;;;;;;;;;5227774;28;20056;-66
2022/10/27 14:34:44;;;;;;;16.15;4.60;;;;;;;;;;5209861;28;20139;-67
2022/10/27 14:37:16;;;;;;;4.28;3.83;;;;;;;;;;5209877;28;20025;-66
2022/10/27 14:39:48;;;;;;;5.07;4.47;;;;;;;;;;5209568;28;20067;-66
2022/10/27 14:42:21;;;;;;;6.75;5.13;;;;;;;;;;5209620;28;20029;-65
2022/10/27 14:44:57;;;;;;;11.70;4.00;;;;;;;;;;5209899;28;20143;-65
2022/10/27 14:47:29;;;;;;;7.35;4.80;;;;;;;;;;5193229;28;20060;-65
2022/10/27 14:50:14;;;;;;;4.90;4.50;;;;;;;;;;5209075;28;20468;-65
2022/10/27 14:52:46;;;;;;;9.60;4.68;;;;;;;;;;5227309;28;20457;-66
2022/10/27 14:55:36;;;;;;;4.88;4.35;;;;;;;;;;5208385;28;20017;-64
2022/10/27 14:58:18;;;;;;;16.95;4.90;;;;;;;;;;5208900;28;20032;-65
2022/10/27 15:00:49;;;;;;;6.88;4.65;;;;;;;;;;5226736;28;20496;-66
2022/10/27 15:03:19;;;;;;;10.35;4.07;;;;;;;;;;5208599;28;20028;-65
2022/10/27 15:05:50;;;;;;;6.63;4.22;;;;;;;;;;5208459;28;20029;-64
2022/10/27 15:08:21;;;;;;;7.93;4.32;;;;;;;;;;5208321;28;20147;-65
2022/10/27 15:10:52;;;;;;;4.13;3.03;;;;;;;;;;5226065;28;20492;-66
2022/10/27 15:13:25;;;;;;;8.73;5.32;;;;;;;;;;5208284;28;20027;-65
2022/10/27 15:15:57;;;;;;;11.95;4.15;;;;;;;;;;5207887;28;20330;-65
2022/10/27 15:18:29;;;;;;;5.68;4.90;;;;;;;;;;5208709;28;20025;-65
2022/10/27 15:21:01;;;;;;;6.93;4.82;;;;;;;;;;5226032;28;20017;-65
2022/10/27 15:23:31;;;;;;;6.32;4.90;;;;;;;;;;5207638;28;20098;-66